Time;durP1;ratioP1;P1;durP2;ratioP2;P2;SDS_P1;SDS_P2;PMS_P1;PMS_P2;Temp;Humidity;BMP_temperature;BMP_pressure;BME280_temperature;BME280_humidity;BME280_pressure;Samples;Min_cycle;Max_cycle;Signal;HPM_P1;HPM_P2
2022/10/14 00:01:58;;;;;;;36.93;20.83;;;;;;;;;;6582675;28;20173;-92
2022/10/14 00:05:09;;;;;;;33.00;20.17;;;;;;;;;;6600660;28;20157;-91
2022/10/14 00:12:12;;;;;;;33.77;21.33;;;;;;;;;;6599779;28;20628;-91
2022/10/14 00:19:15;;;;;;;33.00;20.90;;;;;;;;;;6599633;28;20524;-90
2022/10/14 00:22:25;;;;;;;33.43;21.17;;;;;;;;;;6581832;28;20575;-90
2022/10/14 00:25:36;;;;;;;31.40;20.30;;;;;;;;;;6581704;28;20176;-91
2022/10/14 00:28:48;;;;;;;35.03;20.83;;;;;;;;;;6622063;28;20203;-90
2022/10/14 00:32:00;;;;;;;30.77;19.93;;;;;;;;;;6608712;28;20180;-92
2022/10/14 00:35:11;;;;;;;34.83;20.90;;;;;;;;;;6600098;28;20214;-92
2022/10/14 00:38:21;;;;;;;35.63;21.57;;;;;;;;;;6581729;28;20625;-92
2022/10/14 00:41:33;;;;;;;30.20;18.40;;;;;;;;;;6598423;28;20203;-92
2022/10/14 00:44:45;;;;;;;32.33;19.93;;;;;;;;;;6581479;28;20242;-92
2022/10/14 01:01:30;;;;;;;30.03;19.33;;;;;;;;;;6596487;28;20326;-91
2022/10/14 01:04:41;;;;;;;35.30;19.33;;;;;;;;;;6597669;28;20185;-92
2022/10/14 01:08:01;;;;;;;32.03;19.70;;;;;;;;;;6598868;28;20172;-91
2022/10/14 01:11:20;;;;;;;29.47;18.17;;;;;;;;;;6596785;28;20177;-91
2022/10/14 01:14:35;;;;;;;32.20;19.73;;;;;;;;;;6597023;28;20203;-92
2022/10/14 01:17:49;;;;;;;35.73;19.87;;;;;;;;;;6597504;28;20176;-91
2022/10/14 01:21:22;;;;;;;33.70;20.10;;;;;;;;;;6597068;28;20201;-90
2022/10/14 01:24:44;;;;;;;30.93;18.40;;;;;;;;;;6597416;28;20329;-90
2022/10/14 01:39:30;;;;;;;35.93;20.23;;;;;;;;;;6577499;28;20256;-91
2022/10/14 01:42:42;;;;;;;34.47;20.40;;;;;;;;;;6553978;28;20521;-92
2022/10/14 01:45:55;;;;;;;27.07;18.30;;;;;;;;;;6553751;28;20542;-92
2022/10/14 01:49:17;;;;;;;29.50;18.80;;;;;;;;;;6571888;28;20323;-91
2022/10/14 01:52:32;;;;;;;31.67;18.77;;;;;;;;;;6569507;28;20180;-91
2022/10/14 01:55:44;;;;;;;30.67;19.10;;;;;;;;;;6553389;28;20207;-91
2022/10/14 02:02:55;;;;;;;32.60;19.63;;;;;;;;;;6571094;28;20180;-91
2022/10/14 02:09:53;;;;;;;30.87;18.80;;;;;;;;;;6571082;28;20186;-89
2022/10/14 02:13:13;;;;;;;31.93;20.67;;;;;;;;;;6571597;28;20181;-89
2022/10/14 02:16:39;;;;;;;31.57;19.07;;;;;;;;;;6553430;28;20217;-89
2022/10/14 02:19:52;;;;;;;30.37;18.73;;;;;;;;;;6571203;28;20177;-89
2022/10/14 02:23:07;;;;;;;35.27;19.43;;;;;;;;;;6571142;28;20595;-89
2022/10/14 02:26:19;;;;;;;33.13;21.10;;;;;;;;;;6571179;28;20180;-91
2022/10/14 02:29:30;;;;;;;30.87;19.83;;;;;;;;;;6553162;28;20535;-91
2022/10/14 02:32:46;;;;;;;37.03;21.10;;;;;;;;;;6570507;28;20238;-91
2022/10/14 02:35:58;;;;;;;33.17;19.87;;;;;;;;;;6570842;28;20209;-92
2022/10/14 02:39:10;;;;;;;32.17;20.27;;;;;;;;;;6553231;28;20180;-91
2022/10/14 02:42:20;;;;;;;36.47;20.93;;;;;;;;;;6570922;28;20199;-91
2022/10/14 02:45:31;;;;;;;34.97;20.30;;;;;;;;;;6570738;28;20181;-93
2022/10/14 02:48:43;;;;;;;39.30;20.70;;;;;;;;;;6571188;28;20612;-90
2022/10/14 02:51:53;;;;;;;31.30;19.90;;;;;;;;;;6570011;28;20178;-89
2022/10/14 02:55:04;;;;;;;32.40;19.77;;;;;;;;;;6570781;28;20236;-90
2022/10/14 02:58:14;;;;;;;34.47;21.00;;;;;;;;;;6552952;28;20181;-90
2022/10/14 03:01:24;;;;;;;36.03;21.93;;;;;;;;;;6567155;28;20233;-90
2022/10/14 03:04:35;;;;;;;31.27;21.30;;;;;;;;;;6569054;28;20334;-90
2022/10/14 03:07:45;;;;;;;33.70;20.53;;;;;;;;;;6570302;28;20594;-90
2022/10/14 03:10:56;;;;;;;34.30;21.17;;;;;;;;;;6570060;28;20180;-90
2022/10/14 03:14:06;;;;;;;35.67;21.20;;;;;;;;;;6568991;28;20239;-91
2022/10/14 03:17:16;;;;;;;36.40;22.30;;;;;;;;;;6568444;28;20517;-92
2022/10/14 03:20:27;;;;;;;41.83;23.70;;;;;;;;;;6571064;28;20199;-92
2022/10/14 03:23:39;;;;;;;39.83;22.67;;;;;;;;;;6568122;28;20203;-92
2022/10/14 03:26:51;;;;;;;38.67;22.73;;;;;;;;;;6568432;28;20621;-92
2022/10/14 03:30:03;;;;;;;43.60;23.87;;;;;;;;;;6569081;28;20267;-94
2022/10/14 03:33:13;;;;;;;41.60;25.57;;;;;;;;;;6570050;28;20606;-92
2022/10/14 03:36:27;;;;;;;44.00;26.37;;;;;;;;;;6557131;28;20217;-92
2022/10/14 03:39:37;;;;;;;46.27;25.53;;;;;;;;;;6575246;28;20185;-92
2022/10/14 03:42:48;;;;;;;37.70;23.60;;;;;;;;;;6575217;28;20264;-91
2022/10/14 03:46:00;;;;;;;42.60;23.80;;;;;;;;;;6573334;28;20173;-92
2022/10/14 03:49:11;;;;;;;40.00;23.57;;;;;;;;;;6573404;28;20177;-92
2022/10/14 03:52:22;;;;;;;40.07;23.13;;;;;;;;;;6589817;28;20538;-91
2022/10/14 03:55:33;;;;;;;36.67;22.37;;;;;;;;;;6573648;28;20217;-90
2022/10/14 03:58:43;;;;;;;34.43;21.83;;;;;;;;;;6574332;28;20225;-90
2022/10/14 04:01:53;;;;;;;38.30;21.80;;;;;;;;;;6556259;28;20189;-90
2022/10/14 04:05:04;;;;;;;38.70;22.97;;;;;;;;;;6573831;28;20180;-90
2022/10/14 04:08:16;;;;;;;35.33;21.40;;;;;;;;;;6555682;28;20181;-91
2022/10/14 04:11:27;;;;;;;37.43;23.17;;;;;;;;;;6556561;28;20184;-90
2022/10/14 04:14:37;;;;;;;36.33;24.50;;;;;;;;;;6573929;28;20287;-90
2022/10/14 04:17:48;;;;;;;52.00;30.17;;;;;;;;;;6573734;28;20510;-90
2022/10/14 04:20:59;;;;;;;40.30;24.03;;;;;;;;;;6574146;28;20177;-90
2022/10/14 04:24:09;;;;;;;35.93;21.53;;;;;;;;;;6556502;28;20189;-90
2022/10/14 04:27:20;;;;;;;33.07;21.47;;;;;;;;;;6573142;28;20212;-90
2022/10/14 04:30:30;;;;;;;29.37;18.20;;;;;;;;;;6573237;28;20280;-91
2022/10/14 04:33:40;;;;;;;36.43;22.80;;;;;;;;;;6574670;28;20501;-92
2022/10/14 04:36:51;;;;;;;34.93;21.93;;;;;;;;;;6555327;28;20258;-90
2022/10/14 04:40:10;;;;;;;32.20;21.37;;;;;;;;;;6555230;28;20181;-91
2022/10/14 04:43:21;;;;;;;34.63;21.50;;;;;;;;;;6572549;28;20229;-91
2022/10/14 04:46:31;;;;;;;36.70;22.77;;;;;;;;;;6571645;28;20188;-90
2022/10/14 04:49:41;;;;;;;40.67;23.00;;;;;;;;;;6572705;28;20189;-90
2022/10/14 04:52:52;;;;;;;42.83;25.87;;;;;;;;;;6572443;28;20173;-92
2022/10/14 04:56:02;;;;;;;41.53;24.20;;;;;;;;;;6555201;28;20216;-90
2022/10/14 04:59:12;;;;;;;41.37;23.77;;;;;;;;;;6573276;28;20267;-91
2022/10/14 05:02:23;;;;;;;37.77;22.27;;;;;;;;;;6571583;28;20181;-91
2022/10/14 05:05:34;;;;;;;59.27;36.63;;;;;;;;;;6572123;28;20216;-91
2022/10/14 05:08:44;;;;;;;42.30;25.43;;;;;;;;;;6572332;28;20185;-89
2022/10/14 05:11:54;;;;;;;50.47;27.93;;;;;;;;;;6572657;28;20169;-90
2022/10/14 05:15:05;;;;;;;42.87;23.90;;;;;;;;;;6538941;28;20735;-90
2022/10/14 05:18:15;;;;;;;36.30;23.47;;;;;;;;;;6572174;28;20235;-90
2022/10/14 05:21:26;;;;;;;35.20;23.57;;;;;;;;;;6554505;28;20231;-90
2022/10/14 05:24:36;;;;;;;37.63;21.03;;;;;;;;;;6554345;28;20585;-90
2022/10/14 05:27:47;;;;;;;38.43;23.60;;;;;;;;;;6571614;28;20177;-90
2022/10/14 05:30:58;;;;;;;38.70;21.53;;;;;;;;;;6572318;28;20277;-89
2022/10/14 05:34:08;;;;;;;40.03;24.83;;;;;;;;;;6554274;28;20209;-89
2022/10/14 05:37:18;;;;;;;35.83;23.57;;;;;;;;;;6571971;28;20263;-89
2022/10/14 05:40:29;;;;;;;35.57;21.27;;;;;;;;;;6571762;28;20680;-89
2022/10/14 05:43:39;;;;;;;30.67;20.80;;;;;;;;;;6554636;28;20188;-89
2022/10/14 05:46:50;;;;;;;28.60;20.17;;;;;;;;;;6553723;28;20251;-89
2022/10/14 05:50:02;;;;;;;28.87;19.90;;;;;;;;;;6553861;28;20200;-90
2022/10/14 05:53:12;;;;;;;31.03;20.63;;;;;;;;;;6570672;28;20638;-90
2022/10/14 05:56:23;;;;;;;31.20;20.30;;;;;;;;;;6553489;28;20217;-90
2022/10/14 05:59:36;;;;;;;28.30;19.57;;;;;;;;;;6553670;28;20308;-90
2022/10/14 06:02:46;;;;;;;29.33;20.40;;;;;;;;;;6570050;28;20246;-89
2022/10/14 06:05:56;;;;;;;28.47;20.53;;;;;;;;;;6571338;28;20208;-90
2022/10/14 06:09:07;;;;;;;30.77;18.90;;;;;;;;;;6569696;28;20177;-89
2022/10/14 06:12:17;;;;;;;30.07;20.00;;;;;;;;;;6570480;28;20184;-90
2022/10/14 06:15:27;;;;;;;31.63;20.20;;;;;;;;;;6569822;28;20209;-91
2022/10/14 06:18:38;;;;;;;30.33;20.97;;;;;;;;;;6569713;28;20189;-90
2022/10/14 06:21:48;;;;;;;30.83;20.87;;;;;;;;;;6569730;28;20185;-90
2022/10/14 06:24:59;;;;;;;30.30;20.63;;;;;;;;;;6570909;28;20189;-90
2022/10/14 06:28:10;;;;;;;32.53;21.23;;;;;;;;;;6569616;28;20183;-90
2022/10/14 06:31:20;;;;;;;31.67;20.47;;;;;;;;;;6570947;28;20624;-91
2022/10/14 06:34:30;;;;;;;26.43;19.70;;;;;;;;;;6570708;28;20565;-91
2022/10/14 06:37:43;;;;;;;36.83;25.00;;;;;;;;;;6568781;28;20212;-90
2022/10/14 06:40:54;;;;;;;31.90;20.53;;;;;;;;;;6569319;28;20545;-90
2022/10/14 06:44:04;;;;;;;31.40;20.27;;;;;;;;;;6570980;28;20188;-91
2022/10/14 06:47:15;;;;;;;33.43;21.70;;;;;;;;;;6569398;28;20177;-91
2022/10/14 06:50:25;;;;;;;34.17;22.60;;;;;;;;;;6569136;28;20223;-91
2022/10/14 06:53:35;;;;;;;33.17;22.73;;;;;;;;;;6570279;28;20175;-91
2022/10/14 06:56:46;;;;;;;30.37;21.53;;;;;;;;;;6570321;28;20217;-91
2022/10/14 06:59:57;;;;;;;29.90;20.90;;;;;;;;;;6568430;28;20320;-90
2022/10/14 07:03:07;;;;;;;26.83;20.43;;;;;;;;;;6569694;28;20268;-91
2022/10/14 07:06:17;;;;;;;28.80;21.67;;;;;;;;;;6568507;28;20603;-91
2022/10/14 07:09:28;;;;;;;24.13;19.30;;;;;;;;;;6569403;28;20196;-90
2022/10/14 07:12:38;;;;;;;24.60;20.47;;;;;;;;;;6570514;28;20173;-89
2022/10/14 07:15:50;;;;;;;24.08;19.02;;;;;;;;;;6570462;28;20205;-90
2022/10/14 07:19:01;;;;;;;21.95;18.83;;;;;;;;;;6569935;28;20169;-90
2022/10/14 07:22:11;;;;;;;23.23;19.23;;;;;;;;;;6570153;28;20211;-88
2022/10/14 07:25:21;;;;;;;27.27;20.45;;;;;;;;;;6569882;28;20204;-88
2022/10/14 07:28:32;;;;;;;25.20;20.08;;;;;;;;;;6570237;28;20165;-88
2022/10/14 07:31:43;;;;;;;25.73;20.48;;;;;;;;;;6568646;28;20169;-88
2022/10/14 07:34:53;;;;;;;24.35;20.13;;;;;;;;;;6569365;28;20196;-88
2022/10/14 07:38:03;;;;;;;26.20;20.37;;;;;;;;;;6570696;28;20170;-88
2022/10/14 07:41:16;;;;;;;26.40;21.47;;;;;;;;;;6570094;28;20602;-87
2022/10/14 07:44:27;;;;;;;29.70;20.53;;;;;;;;;;6570454;28;20527;-87
2022/10/14 07:47:37;;;;;;;28.03;21.00;;;;;;;;;;6570287;28;20161;-89
2022/10/14 07:50:48;;;;;;;26.97;20.50;;;;;;;;;;6570240;28;20185;-88
2022/10/14 07:53:59;;;;;;;26.13;20.70;;;;;;;;;;6569692;28;20200;-87
2022/10/14 07:57:10;;;;;;;24.30;18.93;;;;;;;;;;6568692;28;20519;-87
2022/10/14 08:00:20;;;;;;;26.03;20.20;;;;;;;;;;6570198;28;20232;-88
2022/10/14 08:03:31;;;;;;;28.23;19.00;;;;;;;;;;6569245;28;20185;-88
2022/10/14 08:06:42;;;;;;;24.53;20.17;;;;;;;;;;6569754;28;20537;-88
2022/10/14 08:09:53;;;;;;;27.23;20.53;;;;;;;;;;6569141;28;20197;-88
2022/10/14 08:13:04;;;;;;;27.23;19.83;;;;;;;;;;6569115;28;20173;-87
2022/10/14 08:16:15;;;;;;;27.23;19.80;;;;;;;;;;6569003;28;20247;-88
2022/10/14 08:19:26;;;;;;;24.23;19.50;;;;;;;;;;6569043;28;20174;-87
2022/10/14 08:22:36;;;;;;;24.50;19.60;;;;;;;;;;6573406;28;20177;-90
2022/10/14 08:25:47;;;;;;;25.10;19.07;;;;;;;;;;6581783;28;20657;-86
2022/10/14 08:29:00;;;;;;;26.70;19.43;;;;;;;;;;6580928;28;20180;-87
2022/10/14 08:32:10;;;;;;;23.13;19.67;;;;;;;;;;6573704;28;20173;-87
2022/10/14 08:35:20;;;;;;;25.57;19.03;;;;;;;;;;6573210;28;20255;-88
2022/10/14 08:38:30;;;;;;;19.60;17.37;;;;;;;;;;6573628;28;20181;-88
2022/10/14 08:41:41;;;;;;;33.23;19.53;;;;;;;;;;6573556;28;20178;-88
2022/10/14 08:44:56;;;;;;;25.27;18.87;;;;;;;;;;6573525;28;20177;-88
2022/10/14 08:48:15;;;;;;;23.63;18.03;;;;;;;;;;6573772;28;20183;-89
2022/10/14 08:51:26;;;;;;;24.30;19.20;;;;;;;;;;6573115;28;20189;-88
2022/10/14 08:54:38;;;;;;;25.70;18.57;;;;;;;;;;6573874;28;20639;-89
2022/10/14 08:58:21;;;;;;;23.30;16.80;;;;;;;;;;6573655;28;20201;-90
2022/10/14 09:01:32;;;;;;;25.90;17.63;;;;;;;;;;6528964;28;20315;-88
2022/10/14 09:04:42;;;;;;;20.70;17.00;;;;;;;;;;6572919;28;20184;-89
2022/10/14 09:07:55;;;;;;;23.07;17.07;;;;;;;;;;6573024;28;20177;-90
2022/10/14 09:11:08;;;;;;;20.77;16.93;;;;;;;;;;6573182;28;20211;-90
2022/10/14 09:14:21;;;;;;;21.33;17.10;;;;;;;;;;6554434;28;20208;-89
2022/10/14 09:17:50;;;;;;;21.10;17.70;;;;;;;;;;6555768;28;20217;-89
2022/10/14 09:21:01;;;;;;;21.97;18.23;;;;;;;;;;6572779;28;20172;-88
2022/10/14 09:24:15;;;;;;;20.83;17.07;;;;;;;;;;6571918;28;20239;-89
2022/10/14 09:27:27;;;;;;;21.10;16.60;;;;;;;;;;6573037;28;20685;-89
2022/10/14 09:30:39;;;;;;;21.03;16.83;;;;;;;;;;6572567;28;20263;-87
2022/10/14 09:33:49;;;;;;;26.17;17.13;;;;;;;;;;6570246;28;20223;-87
2022/10/14 09:37:09;;;;;;;20.33;16.27;;;;;;;;;;6572701;28;20625;-87
2022/10/14 09:40:28;;;;;;;17.97;15.60;;;;;;;;;;6572032;28;20172;-87
2022/10/14 09:43:59;;;;;;;19.67;15.47;;;;;;;;;;6572108;28;20332;-87
2022/10/14 09:47:11;;;;;;;21.73;17.50;;;;;;;;;;6572172;28;20184;-87
2022/10/14 09:50:42;;;;;;;23.67;17.07;;;;;;;;;;6571843;28;20649;-88
2022/10/14 09:54:03;;;;;;;19.50;15.40;;;;;;;;;;6572192;28;20184;-87
2022/10/14 09:57:17;;;;;;;25.73;17.60;;;;;;;;;;6572178;28;20251;-90
2022/10/14 10:00:29;;;;;;;22.70;18.63;;;;;;;;;;6571958;28;20224;-89
2022/10/14 10:03:39;;;;;;;23.50;18.43;;;;;;;;;;6571395;28;20264;-88
2022/10/14 10:06:52;;;;;;;26.67;19.80;;;;;;;;;;6571789;28;20185;-88
2022/10/14 10:10:16;;;;;;;22.53;18.30;;;;;;;;;;6571674;28;20254;-89
2022/10/14 10:13:32;;;;;;;23.83;19.20;;;;;;;;;;6572571;28;20161;-88
2022/10/14 10:16:44;;;;;;;27.47;20.43;;;;;;;;;;6570924;28;20201;-88
2022/10/14 10:20:12;;;;;;;23.47;19.40;;;;;;;;;;6570920;28;20188;-88
2022/10/14 10:23:24;;;;;;;26.50;19.57;;;;;;;;;;6571131;28;20181;-88
2022/10/14 10:26:34;;;;;;;25.87;20.47;;;;;;;;;;6571618;28;20521;-87
2022/10/14 10:29:44;;;;;;;26.30;19.87;;;;;;;;;;6572003;28;20626;-87
2022/10/14 10:33:01;;;;;;;26.40;18.83;;;;;;;;;;6570614;28;20177;-88
2022/10/14 10:36:14;;;;;;;22.77;19.13;;;;;;;;;;6571116;28;20208;-87
2022/10/14 10:39:27;;;;;;;26.07;18.50;;;;;;;;;;6570560;28;20260;-88
2022/10/14 10:42:47;;;;;;;24.20;18.07;;;;;;;;;;6570796;28;20169;-89
2022/10/14 10:46:03;;;;;;;21.23;17.77;;;;;;;;;;6571212;28;20165;-88
2022/10/14 10:49:39;;;;;;;22.75;18.33;;;;;;;;;;6570879;28;20617;-88
2022/10/14 10:53:08;;;;;;;25.83;19.13;;;;;;;;;;6571149;28;20221;-88
2022/10/14 10:56:27;;;;;;;22.45;18.25;;;;;;;;;;6570989;28;20194;-90
2022/10/14 10:59:42;;;;;;;22.10;18.30;;;;;;;;;;6570927;28;20228;-89
2022/10/14 11:02:54;;;;;;;26.90;19.38;;;;;;;;;;6570817;28;20181;-88
2022/10/14 11:06:13;;;;;;;24.88;18.95;;;;;;;;;;6570634;28;20176;-88
2022/10/14 11:13:27;;;;;;;26.30;20.20;;;;;;;;;;6570021;28;20161;-86
2022/10/14 11:16:49;;;;;;;21.95;18.60;;;;;;;;;;6569991;28;20212;-88
2022/10/14 11:20:12;;;;;;;22.70;18.63;;;;;;;;;;6570053;28;20184;-86
2022/10/14 11:23:40;;;;;;;52.58;39.35;;;;;;;;;;6570477;28;20626;-88
2022/10/14 11:26:57;;;;;;;25.90;20.13;;;;;;;;;;6570132;28;20176;-88
2022/10/14 11:30:13;;;;;;;22.65;18.20;;;;;;;;;;6570671;28;20165;-88
2022/10/14 11:33:48;;;;;;;25.83;20.42;;;;;;;;;;6569676;28;20174;-86
2022/10/14 11:37:05;;;;;;;24.55;19.83;;;;;;;;;;6570547;28;20189;-87
2022/10/14 11:40:20;;;;;;;26.05;20.48;;;;;;;;;;6570232;28;20502;-88
2022/10/14 11:43:52;;;;;;;27.42;19.95;;;;;;;;;;6570093;28;20501;-85
2022/10/14 11:47:08;;;;;;;24.35;20.05;;;;;;;;;;6570082;28;20554;-85
2022/10/14 11:50:24;;;;;;;25.65;20.52;;;;;;;;;;6552939;28;20672;-85
2022/10/14 11:53:38;;;;;;;23.20;19.85;;;;;;;;;;6553017;28;20626;-85
2022/10/14 11:56:57;;;;;;;23.65;19.45;;;;;;;;;;6572440;28;20290;-85
2022/10/14 12:00:08;;;;;;;23.08;19.48;;;;;;;;;;6573976;28;20534;-85
2022/10/14 12:03:39;;;;;;;24.53;19.97;;;;;;;;;;6574134;28;20260;-85
2022/10/14 12:07:21;;;;;;;27.03;19.70;;;;;;;;;;6574290;28;20173;-85
2022/10/14 12:10:32;;;;;;;24.80;20.30;;;;;;;;;;6558095;28;20193;-84
2022/10/14 12:13:46;;;;;;;24.03;18.37;;;;;;;;;;6574685;28;20173;-85
2022/10/14 12:16:57;;;;;;;23.27;18.17;;;;;;;;;;6574416;28;20604;-85
2022/10/14 12:20:16;;;;;;;25.47;19.10;;;;;;;;;;6574571;28;20236;-86
2022/10/14 12:23:26;;;;;;;24.57;18.97;;;;;;;;;;6573897;28;20558;-85
2022/10/14 12:26:40;;;;;;;22.77;18.23;;;;;;;;;;6574485;28;20213;-86
2022/10/14 12:29:51;;;;;;;23.00;17.43;;;;;;;;;;6573846;28;20177;-85
2022/10/14 12:33:06;;;;;;;19.03;16.97;;;;;;;;;;6573744;28;20181;-85
2022/10/14 12:36:34;;;;;;;24.43;19.70;;;;;;;;;;6573842;28;20204;-85
2022/10/14 12:39:44;;;;;;;25.25;19.88;;;;;;;;;;6573510;28;20153;-85
2022/10/14 12:43:02;;;;;;;21.53;18.73;;;;;;;;;;6573900;28;20267;-85
2022/10/14 12:46:14;;;;;;;44.17;32.27;;;;;;;;;;6573994;28;20513;-85
2022/10/14 12:49:29;;;;;;;22.93;19.13;;;;;;;;;;6573491;28;20197;-84
2022/10/14 12:52:40;;;;;;;23.23;20.13;;;;;;;;;;6573154;28;20546;-85
2022/10/14 12:55:57;;;;;;;22.10;16.98;;;;;;;;;;6573710;28;20232;-84
2022/10/14 12:59:17;;;;;;;24.07;18.57;;;;;;;;;;6573501;28;20619;-85
2022/10/14 13:02:34;;;;;;;20.50;16.50;;;;;;;;;;6573724;28;20166;-83
2022/10/14 13:05:45;;;;;;;19.52;17.42;;;;;;;;;;6573318;28;20182;-84
2022/10/14 13:09:11;;;;;;;27.73;17.43;;;;;;;;;;6571989;28;20625;-84
2022/10/14 13:12:21;;;;;;;23.83;17.98;;;;;;;;;;6573107;28;20173;-84
2022/10/14 13:15:37;;;;;;;24.10;19.73;;;;;;;;;;6573252;28;20193;-84
2022/10/14 13:18:49;;;;;;;21.80;17.20;;;;;;;;;;6572620;28;20630;-85
2022/10/14 13:22:02;;;;;;;22.80;18.33;;;;;;;;;;6571142;28;20177;-84
2022/10/14 13:25:14;;;;;;;20.50;17.10;;;;;;;;;;6572537;28;20177;-84
2022/10/14 13:28:33;;;;;;;25.53;19.53;;;;;;;;;;6572653;28;20169;-84
2022/10/14 13:31:43;;;;;;;23.38;17.67;;;;;;;;;;6572961;28;20154;-85
2022/10/14 13:34:59;;;;;;;23.83;18.17;;;;;;;;;;6572489;28;20746;-85
2022/10/14 13:38:20;;;;;;;20.77;16.57;;;;;;;;;;6572617;28;20177;-86
2022/10/14 13:41:33;;;;;;;21.30;17.50;;;;;;;;;;6570846;28;20204;-85
2022/10/14 13:44:43;;;;;;;23.37;18.27;;;;;;;;;;6570669;28;20196;-85
2022/10/14 13:47:54;;;;;;;19.30;17.20;;;;;;;;;;6569848;28;20709;-84
2022/10/14 13:51:13;;;;;;;20.43;17.33;;;;;;;;;;6569748;28;20197;-85
2022/10/14 13:54:29;;;;;;;30.43;21.67;;;;;;;;;;6569790;28;20233;-86
2022/10/14 13:57:39;;;;;;;23.60;20.53;;;;;;;;;;6570190;28;20492;-85
2022/10/14 14:00:58;;;;;;;22.20;18.33;;;;;;;;;;6570570;28;20311;-85
2022/10/14 14:04:11;;;;;;;23.93;17.20;;;;;;;;;;6572847;28;20205;-85
2022/10/14 14:07:24;;;;;;;22.23;18.17;;;;;;;;;;6572231;28;20177;-85
2022/10/14 14:10:34;;;;;;;24.57;18.70;;;;;;;;;;6572026;28;20573;-85
2022/10/14 14:13:55;;;;;;;22.03;18.53;;;;;;;;;;6572000;28;20227;-85
2022/10/14 14:17:12;;;;;;;21.67;18.37;;;;;;;;;;6571542;28;20534;-86
2022/10/14 14:20:25;;;;;;;22.23;17.53;;;;;;;;;;6571158;28;20162;-86
2022/10/14 14:23:35;;;;;;;25.07;19.20;;;;;;;;;;6571688;28;20609;-85
2022/10/14 14:26:45;;;;;;;26.57;21.90;;;;;;;;;;6571892;28;20215;-87
2022/10/14 14:29:56;;;;;;;25.43;20.23;;;;;;;;;;6571073;28;20589;-86
2022/10/14 14:33:09;;;;;;;22.17;17.03;;;;;;;;;;6570038;28;20177;-86
2022/10/14 14:36:22;;;;;;;20.50;17.83;;;;;;;;;;6571047;28;20287;-87
2022/10/14 14:39:33;;;;;;;27.57;21.23;;;;;;;;;;6571384;28;20185;-86
2022/10/14 14:42:44;;;;;;;26.73;20.83;;;;;;;;;;6571051;28;20651;-86
2022/10/14 14:45:55;;;;;;;24.10;20.57;;;;;;;;;;6570954;28;20169;-85
2022/10/14 14:49:11;;;;;;;23.47;17.80;;;;;;;;;;6570929;28;20192;-86
2022/10/14 14:52:21;;;;;;;29.73;21.80;;;;;;;;;;6570284;28;20170;-87
2022/10/14 14:55:31;;;;;;;24.27;19.60;;;;;;;;;;6570693;28;20246;-86
2022/10/14 14:58:48;;;;;;;22.53;19.63;;;;;;;;;;6570316;28;20233;-85
2022/10/14 15:01:59;;;;;;;24.60;20.93;;;;;;;;;;6571744;28;20463;-87
2022/10/14 15:05:10;;;;;;;33.53;22.87;;;;;;;;;;6570416;28;20177;-87
2022/10/14 15:08:23;;;;;;;35.37;23.63;;;;;;;;;;6569417;28;20518;-87
2022/10/14 15:11:54;;;;;;;42.20;29.33;;;;;;;;;;6571001;28;20298;-87
2022/10/14 15:15:04;;;;;;;35.57;25.23;;;;;;;;;;6566444;28;20315;-86
2022/10/14 15:18:36;;;;;;;33.13;25.10;;;;;;;;;;6551227;28;20184;-87
2022/10/14 15:22:06;;;;;;;29.70;23.13;;;;;;;;;;6568524;28;20276;-86
2022/10/14 15:25:19;;;;;;;29.73;22.30;;;;;;;;;;6569205;28;20544;-86
2022/10/14 15:28:30;;;;;;;32.43;23.30;;;;;;;;;;6570732;28;20552;-86
2022/10/14 15:31:42;;;;;;;38.57;29.40;;;;;;;;;;6573565;28;20223;-86
2022/10/14 15:34:55;;;;;;;32.53;23.83;;;;;;;;;;6557902;28;20303;-86
2022/10/14 15:38:12;;;;;;;37.17;26.90;;;;;;;;;;6575424;28;20179;-85
2022/10/14 15:41:23;;;;;;;37.40;23.23;;;;;;;;;;6574902;28;20629;-86
2022/10/14 15:44:33;;;;;;;36.77;22.33;;;;;;;;;;6574931;28;20267;-86
2022/10/14 15:47:44;;;;;;;28.27;20.97;;;;;;;;;;6574911;28;20223;-86
2022/10/14 15:50:54;;;;;;;25.53;19.03;;;;;;;;;;6574609;28;20288;-86
2022/10/14 15:54:05;;;;;;;29.00;20.77;;;;;;;;;;6574903;28;20180;-86
2022/10/14 15:57:16;;;;;;;27.23;20.90;;;;;;;;;;6574556;28;20170;-86
2022/10/14 16:00:26;;;;;;;28.13;21.03;;;;;;;;;;6564408;28;20233;-86
2022/10/14 16:03:36;;;;;;;38.77;28.10;;;;;;;;;;6573583;28;20264;-86
2022/10/14 16:06:48;;;;;;;50.47;34.23;;;;;;;;;;6574689;28;20227;-86
2022/10/14 16:09:58;;;;;;;31.67;24.07;;;;;;;;;;6575000;28;20231;-86
2022/10/14 16:13:10;;;;;;;30.40;22.40;;;;;;;;;;6573956;28;20724;-86
2022/10/14 16:16:27;;;;;;;26.83;21.13;;;;;;;;;;6573797;28;20208;-86
2022/10/14 16:19:37;;;;;;;30.10;23.67;;;;;;;;;;6574252;28;20169;-86
2022/10/14 16:22:47;;;;;;;30.50;22.60;;;;;;;;;;6574070;28;20634;-85
2022/10/14 16:25:59;;;;;;;29.57;21.93;;;;;;;;;;6573774;28;20169;-85
2022/10/14 16:29:09;;;;;;;29.33;23.43;;;;;;;;;;6574614;28;20173;-85
2022/10/14 16:32:19;;;;;;;32.03;24.63;;;;;;;;;;6574484;28;20184;-86
2022/10/14 16:35:30;;;;;;;38.87;24.30;;;;;;;;;;6574222;28;20646;-85
2022/10/14 16:38:40;;;;;;;29.17;23.70;;;;;;;;;;6574884;28;20177;-86
2022/10/14 16:41:50;;;;;;;31.27;23.00;;;;;;;;;;6573698;28;20177;-86
2022/10/14 16:45:01;;;;;;;35.30;24.80;;;;;;;;;;6574213;28;20207;-85
2022/10/14 16:48:11;;;;;;;38.70;26.67;;;;;;;;;;6573816;28;20657;-85
2022/10/14 16:51:21;;;;;;;33.27;26.17;;;;;;;;;;6588794;28;20612;-86
2022/10/14 16:54:32;;;;;;;41.03;28.40;;;;;;;;;;6573400;28;20200;-86
2022/10/14 16:57:42;;;;;;;34.03;26.23;;;;;;;;;;6573502;28;20188;-86
2022/10/14 17:00:52;;;;;;;37.97;28.87;;;;;;;;;;6572732;28;20225;-88
2022/10/14 17:04:03;;;;;;;38.23;27.73;;;;;;;;;;6572328;28;20688;-87
2022/10/14 17:07:16;;;;;;;34.77;27.23;;;;;;;;;;6573261;28;20590;-87
2022/10/14 17:10:26;;;;;;;33.53;26.03;;;;;;;;;;6572786;28;20200;-87
2022/10/14 17:13:37;;;;;;;36.97;29.20;;;;;;;;;;6573228;28;20173;-87
2022/10/14 17:16:51;;;;;;;34.43;27.27;;;;;;;;;;6572336;28;20237;-87
2022/10/14 17:20:01;;;;;;;38.57;27.57;;;;;;;;;;6555416;28;20233;-87
2022/10/14 17:23:11;;;;;;;37.03;28.33;;;;;;;;;;6555203;28;20189;-87
2022/10/14 17:26:22;;;;;;;32.80;26.13;;;;;;;;;;6572316;28;20184;-86
2022/10/14 17:29:32;;;;;;;40.43;27.77;;;;;;;;;;6572865;28;20205;-87
2022/10/14 17:32:43;;;;;;;32.83;26.27;;;;;;;;;;6572028;28;20219;-87
2022/10/14 17:35:56;;;;;;;34.13;26.43;;;;;;;;;;6555053;28;20205;-88
2022/10/14 17:39:11;;;;;;;33.83;25.83;;;;;;;;;;6572798;28;20498;-87
2022/10/14 17:42:21;;;;;;;31.70;24.93;;;;;;;;;;6572338;28;20303;-87
2022/10/14 17:45:31;;;;;;;37.97;25.90;;;;;;;;;;6571903;28;20173;-87
2022/10/14 17:48:42;;;;;;;34.43;27.47;;;;;;;;;;6572008;28;20633;-88
2022/10/14 17:51:53;;;;;;;34.17;24.33;;;;;;;;;;6571067;28;20287;-88
2022/10/14 17:55:04;;;;;;;32.07;24.17;;;;;;;;;;6571701;28;20244;-88
2022/10/14 17:58:14;;;;;;;31.20;23.97;;;;;;;;;;6571972;28;20227;-88
2022/10/14 18:01:25;;;;;;;32.93;24.43;;;;;;;;;;6572023;28;20228;-89
2022/10/14 18:04:38;;;;;;;28.73;22.20;;;;;;;;;;6571588;28;20181;-88
2022/10/14 18:07:49;;;;;;;29.50;22.20;;;;;;;;;;6571320;28;20169;-89
2022/10/14 18:11:06;;;;;;;30.57;23.77;;;;;;;;;;6571805;28;20648;-88
2022/10/14 18:14:17;;;;;;;29.00;23.60;;;;;;;;;;6572081;28;20181;-87
2022/10/14 18:17:28;;;;;;;31.80;23.87;;;;;;;;;;6571910;28;20177;-88
2022/10/14 18:20:41;;;;;;;30.53;24.43;;;;;;;;;;6571694;28;20491;-88
2022/10/14 18:23:52;;;;;;;39.60;27.97;;;;;;;;;;6572125;28;20193;-88
2022/10/14 18:27:03;;;;;;;36.43;26.67;;;;;;;;;;6571734;28;20173;-88
2022/10/14 18:30:14;;;;;;;29.83;22.53;;;;;;;;;;6571820;28;20223;-88
2022/10/14 18:33:30;;;;;;;32.70;24.70;;;;;;;;;;6553516;28;20574;-88
2022/10/14 18:36:40;;;;;;;32.27;25.27;;;;;;;;;;6571461;28;20197;-87
2022/10/14 18:39:51;;;;;;;30.87;23.30;;;;;;;;;;6570842;28;20522;-88
2022/10/14 18:43:04;;;;;;;32.13;23.57;;;;;;;;;;6570994;28;20192;-87
2022/10/14 18:46:14;;;;;;;32.13;23.63;;;;;;;;;;6571080;28;20515;-87
2022/10/14 18:49:24;;;;;;;32.87;24.77;;;;;;;;;;6571850;28;20197;-87
2022/10/14 18:52:35;;;;;;;30.40;22.63;;;;;;;;;;6570385;28;20295;-87
2022/10/14 18:55:45;;;;;;;31.63;22.70;;;;;;;;;;6570371;28;20732;-87
2022/10/14 18:58:57;;;;;;;27.37;20.07;;;;;;;;;;6553341;28;20697;-87
2022/10/14 19:02:11;;;;;;;29.77;23.00;;;;;;;;;;6571126;28;20176;-88
2022/10/14 19:05:21;;;;;;;29.03;21.63;;;;;;;;;;6569435;28;20180;-85
2022/10/14 19:08:33;;;;;;;31.20;21.27;;;;;;;;;;6570525;28;20170;-86
2022/10/14 19:11:45;;;;;;;25.37;20.33;;;;;;;;;;6570214;28;20234;-84
2022/10/14 19:14:55;;;;;;;27.60;20.60;;;;;;;;;;6552686;28;20376;-84
2022/10/14 19:18:06;;;;;;;28.43;21.50;;;;;;;;;;6570325;28;20606;-84
2022/10/14 19:21:18;;;;;;;28.73;22.43;;;;;;;;;;6570723;28;20181;-84
2022/10/14 19:24:29;;;;;;;27.27;21.33;;;;;;;;;;6569617;28;20185;-84
2022/10/14 19:27:39;;;;;;;27.50;21.83;;;;;;;;;;6570044;28;20652;-84